Nearby METAR Reports

 

KMTN - Baltimore/Martin, Maryland, USA
Distance from station: SSE 8mi, 13km
Updated: Sun, 01-Feb-2015 4:54am EST
Partly cloudy
Partly cloudy
 Wind from calm
Wind: Calm
Temperature: 21°F , -6°C
Dew Point: 19°F , -7°C
Humidity: 93%
Barometer: 30.30 inHg , 1026.1 hPa
Clouds: Partly cloudy
Visibility: 10 miles , 16 km
Cloud details: Partly cloudy 5000 ft
2015/02/01 09:54 KMTN 010954Z AUTO 00000KT 10SM SCT050 M06/M07 A3030 RMK AO2
KDMH - Baltimore/Dwntwn, Maryland, USA
Distance from station: SW 12mi, 19km
Updated: Sun, 01-Feb-2015 4:54am EST

 
Temperature: 25°F , -4°C
Dew Point: 12°F , -11°C
Humidity: 59%
Barometer: 30.27 inHg , 1025.1 hPa
2015/02/01 09:54 KDMH 010954Z AUTO M04/M11 A3027 RMK AO1 SLP250 T10391106
 
KBWI - Balto/Wash Intl, Maryland, USA
Distance from station: SSW 20mi, 33km
Updated: Sun, 01-Feb-2015 4:54am EST
Overcast
Overcast
 Wind from calm
Wind: Calm
Temperature: 21°F , -6°C
Dew Point: 14°F , -10°C
Humidity: 74%
Barometer: 30.26 inHg , 1024.7 hPa
Clouds: Overcast
Visibility: 10 miles , 16 km
Cloud details: Partly cloudy 5000 ft
Mostly cloudy 15000 ft
Overcast 25000 ft
2015/02/01 09:54 KBWI 010954Z 00000KT 10SM SCT050 BKN150 OVC250 M06/M10 A3026 RMK AO2 SLP249 T10561100
KDMW - Carroll Cnty, Maryland, USA
Distance from station: WNW 30mi, 48km
Updated: Sun, 01-Feb-2015 4:55am EST
Overcast
Overcast
 Wind from calm
Wind: Calm
Temperature: 25°F , -4°C
Dew Point: 16°F , -9°C
Humidity: 69%
Barometer: 30.22 inHg , 1023.4 hPa
Clouds: Overcast
Visibility: 10 miles , 16 km
Cloud details: Overcast 4600 ft
2015/02/01 09:55 KDMW 010955Z AUTO 00000KT 10SM OVC046 M04/M09 A3022 RMK AO2
 
KNAK - Annapolis/Naval, Maryland, USA
Distance from station: S 30mi, 48km
Updated: Sun, 01-Feb-2015 4:54am EST
Clear
Clear
 Wind from calm
Wind: Calm
Temperature: 23°F , -5°C
Dew Point: 12°F , -11°C
Humidity: 63%
Barometer: 30.28 inHg , 1025.4 hPa
Clouds: Clear
Visibility: 10 miles , 16 km
2015/02/01 09:54 KNAK 010954Z AUTO 00000KT 10SM CLR M05/M11 A3028 RMK AO2 SLP254 T10501111
KW29 - Stevensville, Maryland, USA
Distance from station: SSE 31mi, 50km
Updated: Sun, 01-Feb-2015 4:54am EST

 Wind from calm
Wind: Calm
Temperature: 23°F , -5°C
Dew Point: 19°F , -7°C
Humidity: 86%
Barometer: 30.29 inHg , 1025.7 hPa
Visibility: 10 miles , 16 km
2015/02/01 09:54 KW29 010954Z AUTO 00000KT 10SM M05/M07 A3029 RMK AO1
 
KCGS - College Park, Maryland, USA
Distance from station: SW 38mi, 61km
Updated: Sun, 01-Feb-2015 4:50am EST
Mostly cloudy
Mostly cloudy
 Wind from calm
Wind: Calm
Temperature: 23°F , -5°C
Dew Point: 19°F , -7°C
Humidity: 86%
Barometer: 30.27 inHg , 1025.1 hPa
Clouds: Mostly cloudy
Visibility: 10 miles , 16 km
Cloud details: Mostly cloudy 5000 ft
Mostly cloudy 11000 ft
2015/02/01 09:50 KCGS 010950Z AUTO 00000KT 10SM BKN050 BKN110 M05/M07 A3027 RMK AO1
KGAI - Gaithersburg, Maryland, USA
Distance from station: WSW 40mi, 65km
Updated: Sun, 01-Feb-2015 4:55am EST
Partly cloudy
Partly cloudy
 Wind from calm
Wind: Calm
Temperature: 21°F , -6°C
Dew Point: 16°F , -9°C
Humidity: 80%
Barometer: 30.27 inHg , 1025.1 hPa
Clouds: Partly cloudy
Visibility: 10 miles , 16 km
Cloud details: Partly cloudy 4800 ft
2015/02/01 09:55 KGAI 010955Z 00000KT 10SM SCT048 M06/M09 A3027 RMK AO1
 
KTHV - York, Pennsylvania, USA
Distance from station: NNW 40mi, 65km
Updated: Sun, 01-Feb-2015 4:53am EST
Overcast
Overcast
 Wind from calm
Wind: Calm
Temperature: 21°F , -6°C
Dew Point: 16°F , -9°C
Humidity: 80%
Barometer: 30.22 inHg , 1023.4 hPa
Clouds: Overcast
Visibility: 10 miles , 16 km
Cloud details: Overcast 4800 ft
2015/02/01 09:53 KTHV 010953Z AUTO 00000KT 10SM OVC048 M06/M09 A3022 RMK AO2 SLP244 T10561094
KFDK - Frederick, Maryland, USA
Distance from station: W 47mi, 75km
Updated: Sun, 01-Feb-2015 4:50am EST
Overcast
Overcast
 Wind from calm
Wind: Calm
Temperature: 27°F , -3°C
Dew Point: 16°F , -9°C
Humidity: 64%
Barometer: 30.27 inHg , 1025.1 hPa
Clouds: Overcast
Visibility: 10 miles , 16 km
Cloud details: Mostly cloudy 5000 ft
Overcast 9000 ft
2015/02/01 09:50 KFDK 010950Z AUTO 00000KT 10SM BKN050 OVC090 M03/M09 A3027 RMK AO2 LTG DSNT E
 
KESN - Easton/Newnam, Maryland, USA
Distance from station: SSE 48mi, 78km
Updated: Sun, 01-Feb-2015 5:10am EST
Clear
Clear
 Wind from calm
Wind: Calm
Temperature: 21°F , -6°C
Dew Point: 18°F , -8°C
Humidity: 86%
Barometer: 30.32 inHg , 1026.8 hPa
Clouds: Clear
Visibility: 10 miles , 16 km
2015/02/01 10:10 KESN 011010Z AUTO 00000KT 10SM CLR M06/M08 A3032 RMK AO2 T10581079
KDCA - Washington/Natl, Washington D.c., USA
Distance from station: SW 49mi, 79km
Updated: Sun, 01-Feb-2015 4:52am EST
Overcast
Overcast
 Wind from S
Wind: S 6 mph , 9 km/h
Temperature: 28°F , -2°C
Wind Chill: 21°F , -6°C
Dew Point: 19°F , -7°C
Humidity: 69%
Barometer: 30.28 inHg , 1025.4 hPa
Clouds: Overcast
Visibility: 10 miles , 16 km
Cloud details: Few Clouds 5000 ft
Overcast 10000 ft
2015/02/01 09:52 KDCA 010952Z 19005KT 10SM FEW050 OVC100 M02/M07 A3028 RMK AO2 SLP251 T10171067 $
 
KLNS - Lancaster, Pennsylvania, USA
Distance from station: N 49mi, 79km
Updated: Sun, 01-Feb-2015 4:53am EST
Overcast
Overcast
 Wind from calm
Wind: Calm
Temperature: 19°F , -7°C
Dew Point: 10°F , -12°C
Humidity: 68%
Barometer: 30.23 inHg , 1023.7 hPa
Clouds: Overcast
Visibility: 10 miles , 16 km
Cloud details: Overcast 4500 ft
2015/02/01 09:53 KLNS 010953Z AUTO 00000KT 10SM OVC045 M07/M12 A3023 RMK AO2 SLP241 T10721122
KILG - Wilmington, Delaware, USA
Distance from station: ENE 50mi, 81km
Updated: Sun, 01-Feb-2015 4:51am EST
Mostly cloudy
Mostly cloudy
 Wind from W
Wind: W 5 mph , 7 km/h
Temperature: 21°F , -6°C
Wind Chill: 14°F , -10°C
Dew Point: 9°F , -13°C
Humidity: 58%
Barometer: 30.27 inHg , 1025.1 hPa
Clouds: Mostly cloudy
Visibility: 10 miles , 16 km
Cloud details: Mostly cloudy 5000 ft
2015/02/01 09:51 KILG 010951Z AUTO 27004KT 10SM BKN050 M06/M13 A3027 RMK AO2 SLP249 T10611128